Time;durP1;ratioP1;P1;durP2;ratioP2;P2;SDS_P1;SDS_P2;PMS_P1;PMS_P2;Temp;Humidity;BMP_temperature;BMP_pressure;BME280_temperature;BME280_humidity;BME280_pressure;Samples;Min_cycle;Max_cycle;Signal;HPM_P1;HPM_P2
2021/12/27 00:00:28;;;;;;;7.07;4.87;;;-3.00;99.90;;;;;;5068259;28;20223;-78
2021/12/27 00:02:59;;;;;;;8.17;5.57;;;-3.10;99.90;;;;;;5069702;28;20237;-76
2021/12/27 00:05:25;;;;;;;11.53;5.83;;;-3.10;99.90;;;;;;5050324;28;21192;-76
2021/12/27 00:07:54;;;;;;;5.23;4.53;;;-3.20;99.90;;;;;;5051625;28;20637;-76
2021/12/27 00:10:27;;;;;;;8.70;6.10;;;-3.00;99.90;;;;;;5035989;28;21210;-77
2021/12/27 00:12:53;;;;;;;8.07;5.60;;;-3.10;99.90;;;;;;5068968;28;21210;-76
2021/12/27 00:15:19;;;;;;;8.63;5.60;;;-3.10;99.90;;;;;;5069422;28;20637;-76
2021/12/27 00:17:46;;;;;;;9.43;6.10;;;-3.20;99.90;;;;;;5052083;28;20737;-76
2021/12/27 00:20:14;;;;;;;8.60;5.53;;;-3.20;99.90;;;;;;5063854;28;20991;-76
2021/12/27 00:22:41;;;;;;;9.40;5.70;;;-3.20;99.90;;;;;;5051315;28;20662;-76
2021/12/27 00:25:09;;;;;;;10.67;5.60;;;-3.20;99.90;;;;;;5069234;28;20626;-76
2021/12/27 00:27:35;;;;;;;11.47;6.10;;;-3.20;99.90;;;;;;5059167;28;20625;-78
2021/12/27 00:30:04;;;;;;;8.60;6.67;;;-3.20;99.90;;;;;;5049288;28;20765;-76
2021/12/27 00:32:37;;;;;;;8.33;5.47;;;-3.20;99.90;;;;;;5069489;28;20214;-76
2021/12/27 00:35:07;;;;;;;9.60;6.50;;;-3.20;99.90;;;;;;5069636;28;20593;-77
2021/12/27 00:37:35;;;;;;;9.67;5.70;;;-3.20;99.90;;;;;;5057910;28;20731;-75
2021/12/27 00:40:13;;;;;;;13.00;6.70;;;-3.20;99.90;;;;;;5044212;28;20646;-77
2021/12/27 00:42:39;;;;;;;11.07;6.70;;;-3.20;99.90;;;;;;5050669;28;20668;-76
2021/12/27 00:45:06;;;;;;;11.57;6.83;;;-3.20;99.90;;;;;;5039612;28;21223;-76
2021/12/27 00:47:32;;;;;;;10.33;6.47;;;-3.20;99.90;;;;;;5050401;28;20618;-76
2021/12/27 00:49:57;;;;;;;10.87;6.30;;;-3.10;99.90;;;;;;5068816;28;20670;-76
2021/12/27 00:52:26;;;;;;;10.20;6.07;;;-3.10;99.90;;;;;;5050705;28;20666;-76
2021/12/27 00:54:52;;;;;;;9.83;5.90;;;-3.10;99.90;;;;;;5040239;28;20230;-76
2021/12/27 00:57:19;;;;;;;11.00;6.60;;;-3.10;99.90;;;;;;5051945;28;20645;-76
2021/12/27 00:59:47;;;;;;;11.00;7.07;;;-3.10;99.90;;;;;;5048750;28;20241;-76
2021/12/27 01:02:13;;;;;;;12.03;7.10;;;-3.10;99.90;;;;;;5058091;28;21153;-77
2021/12/27 01:04:41;;;;;;;13.83;6.73;;;-3.10;99.90;;;;;;5049550;28;20708;-77
2021/12/27 01:07:07;;;;;;;10.97;7.10;;;-3.10;99.90;;;;;;5067871;28;20659;-76
2021/12/27 01:09:52;;;;;;;11.43;7.07;;;-3.00;99.90;;;;;;5067948;28;20690;-77
2021/12/27 01:12:35;;;;;;;15.13;8.70;;;-3.00;99.90;;;;;;5057649;28;20990;-75
2021/12/27 01:17:47;;;;;;;12.70;7.10;;;-3.10;99.90;;;;;;5067591;28;21258;-77
2021/12/27 01:20:23;;;;;;;10.47;6.90;;;-3.00;99.90;;;;;;5067019;28;20622;-76
2021/12/27 01:22:50;;;;;;;10.43;7.40;;;-3.00;99.90;;;;;;5056247;28;20835;-76
2021/12/27 01:25:19;;;;;;;12.97;7.67;;;-3.00;99.90;;;;;;5043711;28;20700;-76
2021/12/27 01:27:45;;;;;;;11.67;6.53;;;-3.00;99.90;;;;;;5068145;28;20655;-76
2021/12/27 01:30:15;;;;;;;10.23;7.63;;;-2.90;99.90;;;;;;5068134;28;21306;-76
2021/12/27 01:32:48;;;;;;;12.13;7.60;;;-3.00;99.90;;;;;;5056609;28;20252;-76
2021/12/27 01:35:14;;;;;;;11.70;7.07;;;-3.00;99.90;;;;;;5050373;28;21216;-77
2021/12/27 01:37:42;;;;;;;13.17;8.10;;;-3.00;99.90;;;;;;5067276;28;20678;-76
2021/12/27 01:40:09;;;;;;;10.60;7.47;;;-3.00;99.90;;;;;;5056610;28;21037;-76
2021/12/27 01:42:35;;;;;;;14.80;7.53;;;-3.00;99.90;;;;;;5051304;28;21215;-76
2021/12/27 01:45:04;;;;;;;11.57;8.23;;;-2.70;99.90;;;;;;5068406;28;20609;-76
2021/12/27 01:47:32;;;;;;;12.97;7.53;;;-3.00;99.90;;;;;;5065073;28;20279;-78
2021/12/27 01:49:58;;;;;;;14.57;8.23;;;-2.80;99.90;;;;;;5068124;28;20693;-77
2021/12/27 01:52:24;;;;;;;12.57;8.10;;;-3.00;99.90;;;;;;5050359;28;20733;-76
2021/12/27 01:54:52;;;;;;;15.53;8.60;;;-2.90;99.90;;;;;;5039545;28;20724;-75
2021/12/27 01:57:20;;;;;;;11.80;8.20;;;-3.00;99.90;;;;;;5069579;28;20609;-76
2021/12/27 01:59:46;;;;;;;9.50;7.20;;;-3.00;99.90;;;;;;5067465;28;21227;-76
2021/12/27 02:02:12;;;;;;;16.80;8.80;;;-2.90;99.90;;;;;;5051828;28;20645;-75
2021/12/27 02:04:37;;;;;;;14.57;8.83;;;-2.90;99.90;;;;;;5043756;28;20670;-75
2021/12/27 02:07:03;;;;;;;16.20;8.70;;;-3.00;99.90;;;;;;5055665;28;20700;-75
2021/12/27 02:09:40;;;;;;;13.30;8.67;;;-3.00;99.90;;;;;;5052049;28;20199;-75
2021/12/27 02:12:09;;;;;;;15.30;7.83;;;-3.10;99.90;;;;;;5071887;28;20198;-77
2021/12/27 02:14:35;;;;;;;19.70;8.43;;;-3.00;99.90;;;;;;5057016;28;20666;-75
2021/12/27 02:17:03;;;;;;;11.17;7.93;;;-3.00;99.90;;;;;;5052791;28;21208;-75
2021/12/27 02:19:28;;;;;;;14.07;8.10;;;-2.90;99.90;;;;;;5070933;28;20207;-75
2021/12/27 02:21:57;;;;;;;13.77;8.23;;;-2.90;99.90;;;;;;5059673;28;20601;-76
2021/12/27 02:24:22;;;;;;;10.10;7.73;;;-2.90;99.90;;;;;;5072474;28;20682;-76
2021/12/27 02:26:50;;;;;;;13.13;8.10;;;-2.80;99.90;;;;;;5053499;28;20610;-75
2021/12/27 02:29:16;;;;;;;15.50;8.50;;;-2.80;99.90;;;;;;5038645;28;20199;-77
2021/12/27 02:31:45;;;;;;;13.83;8.90;;;-2.80;99.90;;;;;;5066767;28;20971;-75
2021/12/27 02:34:11;;;;;;;11.50;8.17;;;-2.70;99.90;;;;;;5053708;28;20616;-76
2021/12/27 02:36:38;;;;;;;15.63;9.47;;;-2.70;99.90;;;;;;5069848;28;20628;-75
2021/12/27 02:39:07;;;;;;;12.87;8.53;;;-2.70;99.90;;;;;;5061041;28;20282;-75
2021/12/27 02:41:32;;;;;;;16.90;9.00;;;-2.70;99.90;;;;;;5071266;28;20625;-75
2021/12/27 02:43:58;;;;;;;13.33;8.87;;;-2.80;99.90;;;;;;5068855;28;21172;-75
2021/12/27 02:46:23;;;;;;;14.93;9.23;;;-2.80;99.90;;;;;;5071098;28;20188;-75
2021/12/27 02:48:49;;;;;;;13.80;8.77;;;-2.90;99.90;;;;;;5053200;28;20209;-78
2021/12/27 02:51:18;;;;;;;16.30;8.77;;;-2.80;99.90;;;;;;5070529;28;20272;-77
2021/12/27 02:53:47;;;;;;;13.33;8.87;;;-2.80;99.90;;;;;;5046757;28;20215;-76
2021/12/27 02:56:17;;;;;;;16.17;9.47;;;-2.80;99.90;;;;;;5053605;28;21177;-75
2021/12/27 02:58:43;;;;;;;12.30;8.50;;;-2.90;99.90;;;;;;5053119;28;20858;-75
2021/12/27 03:01:15;;;;;;;12.63;8.23;;;-2.90;99.90;;;;;;5063089;28;21291;-78
2021/12/27 03:03:42;;;;;;;15.30;9.40;;;-2.90;99.90;;;;;;5051577;28;21452;-75
2021/12/27 03:06:10;;;;;;;17.37;9.80;;;-2.90;99.90;;;;;;5053101;28;20618;-75
2021/12/27 03:08:46;;;;;;;13.47;8.87;;;-2.90;99.90;;;;;;5069723;28;20684;-75
2021/12/27 03:11:12;;;;;;;15.03;9.20;;;-2.90;99.90;;;;;;5058146;28;20649;-75
2021/12/27 03:13:40;;;;;;;13.90;9.17;;;-2.90;99.90;;;;;;5051718;28;21005;-76
2021/12/27 03:16:11;;;;;;;15.03;9.30;;;-2.90;99.90;;;;;;5051779;28;20618;-76
2021/12/27 03:18:41;;;;;;;16.27;8.03;;;-2.90;99.90;;;;;;5059446;28;20644;-75
2021/12/27 03:21:07;;;;;;;15.77;9.20;;;-2.80;99.90;;;;;;5052769;28;20683;-75
2021/12/27 03:23:34;;;;;;;17.43;10.10;;;-2.80;99.90;;;;;;5050544;28;20683;-76
2021/12/27 03:26:00;;;;;;;15.93;9.20;;;-2.80;99.90;;;;;;5049102;28;20626;-79
2021/12/27 03:28:28;;;;;;;15.30;8.63;;;-2.80;99.90;;;;;;5073125;28;20679;-77
2021/12/27 03:30:53;;;;;;;16.20;9.00;;;-2.80;99.90;;;;;;5049227;28;20215;-75
2021/12/27 03:33:29;;;;;;;17.00;9.50;;;-3.00;99.90;;;;;;5074731;28;20656;-76
2021/12/27 03:36:07;;;;;;;12.40;8.40;;;-2.90;99.90;;;;;;5062411;28;20190;-75
2021/12/27 03:38:42;;;;;;;13.83;8.70;;;-2.80;99.90;;;;;;5075797;28;20621;-75
2021/12/27 03:41:14;;;;;;;17.50;9.00;;;-2.80;99.90;;;;;;5055666;28;20629;-75
2021/12/27 03:43:40;;;;;;;16.63;9.03;;;-2.80;99.90;;;;;;5037511;28;20634;-76
2021/12/27 03:46:09;;;;;;;16.40;9.30;;;-2.80;99.90;;;;;;5074139;28;20610;-75
2021/12/27 03:48:34;;;;;;;14.67;9.43;;;-2.70;99.90;;;;;;5041060;28;20833;-77
2021/12/27 03:51:01;;;;;;;17.90;9.03;;;-2.70;99.90;;;;;;5050611;28;20660;-77
2021/12/27 03:53:26;;;;;;;12.33;8.90;;;-2.70;99.90;;;;;;5051660;28;20703;-75
2021/12/27 03:55:52;;;;;;;15.83;9.47;;;-2.70;99.90;;;;;;5051736;28;20668;-76
2021/12/27 03:58:28;;;;;;;17.97;9.47;;;-2.80;99.90;;;;;;5047438;28;20212;-75
2021/12/27 04:03:20;;;;;;;19.13;9.77;;;-2.70;99.90;;;;;;5069999;28;20717;-75
2021/12/27 04:05:48;;;;;;;13.13;9.17;;;-2.70;99.90;;;;;;5052500;28;21042;-75
2021/12/27 04:08:16;;;;;;;17.67;9.70;;;-2.70;99.90;;;;;;5039442;28;20741;-75
2021/12/27 04:10:42;;;;;;;16.33;9.37;;;-2.70;99.90;;;;;;5052751;28;21208;-75
2021/12/27 04:13:09;;;;;;;14.53;10.10;;;-2.70;99.90;;;;;;5072305;28;21281;-76
2021/12/27 04:15:36;;;;;;;21.10;10.90;;;-2.80;99.90;;;;;;5053161;28;20656;-76
2021/12/27 04:18:03;;;;;;;15.27;9.57;;;-2.70;99.90;;;;;;5045958;28;20715;-75
2021/12/27 04:20:29;;;;;;;18.40;9.70;;;-2.70;99.90;;;;;;5051638;28;20617;-75
2021/12/27 04:22:58;;;;;;;15.77;10.10;;;-2.70;99.90;;;;;;5052356;28;20636;-75
2021/12/27 04:25:24;;;;;;;14.07;9.50;;;-2.60;99.90;;;;;;5041277;28;20467;-77
2021/12/27 04:27:51;;;;;;;20.97;10.60;;;-2.60;99.90;;;;;;5042439;28;21232;-75
2021/12/27 04:30:18;;;;;;;21.30;11.00;;;-2.50;99.90;;;;;;5050600;28;20732;-75
2021/12/27 04:32:44;;;;;;;17.60;10.60;;;-2.50;99.90;;;;;;5043113;28;21024;-75
2021/12/27 04:35:11;;;;;;;18.63;10.63;;;-2.50;99.90;;;;;;5048362;28;20647;-75
2021/12/27 04:37:39;;;;;;;14.17;10.03;;;-2.50;99.90;;;;;;5050441;28;20226;-75
2021/12/27 04:40:08;;;;;;;16.00;10.27;;;-2.40;99.90;;;;;;5050552;28;20644;-75
2021/12/27 04:42:34;;;;;;;12.33;9.23;;;-2.50;99.90;;;;;;5068178;28;21063;-77
2021/12/27 04:45:00;;;;;;;19.13;10.27;;;-2.50;99.90;;;;;;5069037;28;20722;-75
2021/12/27 04:47:26;;;;;;;20.70;10.03;;;-2.50;99.90;;;;;;5050834;28;21062;-75
2021/12/27 04:49:52;;;;;;;19.73;10.77;;;-2.40;99.90;;;;;;5050259;28;20645;-75
2021/12/27 04:52:18;;;;;;;17.10;10.13;;;-2.50;99.90;;;;;;5044698;28;21248;-75
2021/12/27 04:54:43;;;;;;;15.73;9.77;;;-2.50;99.90;;;;;;5051485;28;20187;-77
2021/12/27 04:57:12;;;;;;;22.00;11.20;;;-2.40;99.90;;;;;;5050745;28;20183;-75
2021/12/27 04:59:38;;;;;;;19.03;11.27;;;-2.40;99.90;;;;;;5049390;28;20229;-76
2021/12/27 05:02:03;;;;;;;14.00;10.17;;;-2.30;99.90;;;;;;5040711;28;20614;-75
2021/12/27 05:04:29;;;;;;;16.40;11.23;;;-2.30;99.90;;;;;;5068172;28;20439;-76
2021/12/27 05:06:59;;;;;;;16.30;10.83;;;-2.20;99.90;;;;;;5067806;28;20265;-75
2021/12/27 05:09:25;;;;;;;19.00;11.03;;;-2.20;99.90;;;;;;5068298;28;20211;-75
2021/12/27 05:11:50;;;;;;;18.27;10.10;;;-2.20;99.90;;;;;;5039245;28;20995;-75
2021/12/27 05:14:16;;;;;;;14.47;9.73;;;-2.20;99.90;;;;;;5050689;28;20190;-76
2021/12/27 05:16:42;;;;;;;22.23;10.90;;;-2.10;99.90;;;;;;5068843;28;20188;-78
2021/12/27 05:19:12;;;;;;;21.73;11.23;;;-2.10;99.90;;;;;;5050487;28;20242;-75
2021/12/27 05:21:38;;;;;;;14.33;9.80;;;-2.10;99.90;;;;;;5038088;28;20222;-77
2021/12/27 05:24:05;;;;;;;20.03;11.17;;;-2.00;99.90;;;;;;5050585;28;20621;-76
2021/12/27 05:26:30;;;;;;;15.57;10.03;;;-2.00;99.90;;;;;;5051202;28;20625;-76
2021/12/27 05:28:56;;;;;;;20.57;11.20;;;-2.00;99.90;;;;;;5038690;28;20644;-76
2021/12/27 05:31:21;;;;;;;14.70;10.47;;;-2.00;99.90;;;;;;5059145;28;20227;-75
2021/12/27 05:33:47;;;;;;;20.50;11.83;;;-2.00;99.90;;;;;;5064775;28;20214;-75
2021/12/27 05:36:15;;;;;;;18.17;10.80;;;-2.00;99.90;;;;;;5068675;28;20255;-75
2021/12/27 05:38:41;;;;;;;22.30;11.97;;;-2.00;99.90;;;;;;5053171;28;20211;-75
2021/12/27 05:41:07;;;;;;;19.47;10.80;;;-1.90;99.90;;;;;;5054529;28;20618;-75
2021/12/27 05:43:32;;;;;;;22.90;11.60;;;-1.90;99.90;;;;;;5052130;28;20722;-76
2021/12/27 05:46:00;;;;;;;19.57;11.07;;;-2.00;99.90;;;;;;5073696;28;20195;-75
2021/12/27 05:48:26;;;;;;;19.93;11.23;;;-2.00;99.90;;;;;;5062784;28;20214;-75
2021/12/27 05:50:51;;;;;;;16.57;11.07;;;-1.90;99.90;;;;;;5063769;28;20637;-75
2021/12/27 05:53:17;;;;;;;15.60;10.57;;;-2.00;99.90;;;;;;5062946;28;20207;-77
2021/12/27 05:55:44;;;;;;;15.50;10.50;;;-2.00;99.90;;;;;;5054611;28;20186;-76
2021/12/27 05:58:10;;;;;;;17.87;12.30;;;-2.00;99.90;;;;;;5055034;28;20294;-75
2021/12/27 06:00:36;;;;;;;22.23;11.80;;;-2.00;99.90;;;;;;5054030;28;20721;-75
2021/12/27 06:03:09;;;;;;;21.03;12.30;;;-1.90;99.90;;;;;;5059812;28;20195;-75
2021/12/27 06:05:34;;;;;;;22.80;11.00;;;-1.90;99.90;;;;;;5055116;28;20659;-75
2021/12/27 06:08:02;;;;;;;18.53;11.60;;;-1.90;99.90;;;;;;5071393;28;20654;-75
2021/12/27 06:10:30;;;;;;;18.03;10.90;;;-1.90;99.90;;;;;;5050559;28;20643;-75
2021/12/27 06:13:00;;;;;;;22.23;11.50;;;-1.90;99.90;;;;;;5054931;28;21106;-75
2021/12/27 06:15:26;;;;;;;19.37;12.80;;;-1.90;99.90;;;;;;5071798;28;20607;-75
2021/12/27 06:17:52;;;;;;;17.73;11.23;;;-1.90;99.90;;;;;;5072027;28;20626;-76
2021/12/27 06:20:18;;;;;;;18.90;11.40;;;-1.90;99.90;;;;;;5040764;28;20651;-75
2021/12/27 06:22:55;;;;;;;14.87;10.00;;;-1.90;99.90;;;;;;5054496;28;20183;-78
2021/12/27 06:25:21;;;;;;;19.57;10.60;;;-1.90;99.90;;;;;;5054007;28;20733;-76
2021/12/27 06:27:47;;;;;;;19.17;11.60;;;-1.90;99.90;;;;;;5043552;28;20637;-75
2021/12/27 06:30:14;;;;;;;18.40;11.90;;;-1.90;99.90;;;;;;5053367;28;20231;-75
2021/12/27 06:32:40;;;;;;;16.97;10.73;;;-1.90;99.90;;;;;;5071089;28;20253;-77
2021/12/27 06:35:10;;;;;;;20.20;12.57;;;-1.90;99.90;;;;;;5053585;28;20647;-76
2021/12/27 06:37:36;;;;;;;17.37;11.20;;;-1.70;99.90;;;;;;5061978;28;20601;-75
2021/12/27 06:40:03;;;;;;;18.63;11.37;;;-1.90;99.90;;;;;;5070985;28;20628;-77
2021/12/27 06:42:29;;;;;;;28.30;13.27;;;-2.10;99.90;;;;;;5070776;28;20981;-75
2021/12/27 06:44:56;;;;;;;16.67;10.97;;;-2.30;99.90;;;;;;5072867;28;20700;-75
2021/12/27 06:47:22;;;;;;;20.53;11.67;;;-2.20;99.90;;;;;;5047241;28;20203;-75
2021/12/27 06:49:50;;;;;;;16.37;11.27;;;-2.20;99.90;;;;;;5071699;28;20629;-76
2021/12/27 06:52:16;;;;;;;18.60;11.07;;;-2.20;99.90;;;;;;5070844;28;20668;-76
2021/12/27 06:54:42;;;;;;;22.23;12.10;;;-2.10;99.90;;;;;;5072079;28;20617;-76
2021/12/27 06:57:08;;;;;;;22.50;13.27;;;-2.10;99.90;;;;;;5060629;28;20617;-76
2021/12/27 06:59:39;;;;;;;19.27;11.87;;;-2.10;99.90;;;;;;5052291;28;20309;-76
2021/12/27 07:02:05;;;;;;;19.10;11.63;;;-2.10;99.90;;;;;;5066239;28;20593;-78
2021/12/27 07:04:31;;;;;;;19.60;12.27;;;-2.00;99.90;;;;;;5051155;28;20622;-79
2021/12/27 07:06:57;;;;;;;21.10;12.23;;;-2.00;99.90;;;;;;5044826;28;20613;-75
2021/12/27 07:09:23;;;;;;;18.57;12.10;;;-2.00;99.90;;;;;;5051710;28;20671;-75
2021/12/27 07:11:49;;;;;;;22.00;12.00;;;-2.00;99.90;;;;;;5040330;28;20652;-76
2021/12/27 07:14:14;;;;;;;23.63;14.00;;;-2.00;99.90;;;;;;5071443;28;20676;-76
2021/12/27 07:16:40;;;;;;;22.43;12.27;;;-2.00;99.90;;;;;;5052521;28;20219;-75
2021/12/27 07:19:05;;;;;;;20.13;12.27;;;-1.90;99.90;;;;;;5071671;28;20579;-75
2021/12/27 07:21:31;;;;;;;21.20;13.83;;;-1.90;99.90;;;;;;5057350;28;20693;-76
2021/12/27 07:23:56;;;;;;;23.13;13.23;;;-1.90;99.90;;;;;;5052803;28;20608;-76
2021/12/27 07:26:22;;;;;;;20.77;12.73;;;-1.90;99.90;;;;;;5070370;28;20266;-76
2021/12/27 07:28:48;;;;;;;24.90;13.20;;;-1.90;99.90;;;;;;5070646;28;20650;-76
2021/12/27 07:31:13;;;;;;;23.33;12.30;;;-1.90;99.90;;;;;;5057627;28;20223;-75
2021/12/27 07:33:39;;;;;;;20.37;12.13;;;-1.80;99.90;;;;;;5070478;28;20612;-76
2021/12/27 07:36:07;;;;;;;19.30;12.67;;;-1.80;99.90;;;;;;5052067;28;20674;-76
2021/12/27 07:38:34;;;;;;;21.17;13.17;;;-1.80;99.90;;;;;;5050625;28;20234;-76
2021/12/27 07:40:59;;;;;;;18.30;12.43;;;-1.80;99.90;;;;;;5069828;28;20781;-76
2021/12/27 07:43:25;;;;;;;18.60;13.17;;;-1.80;99.90;;;;;;5051682;28;21252;-76
2021/12/27 07:45:51;;;;;;;21.07;12.43;;;-1.80;99.90;;;;;;5069633;28;20767;-76
2021/12/27 07:48:16;;;;;;;22.27;13.90;;;-1.70;99.90;;;;;;5040052;28;20217;-75
2021/12/27 07:50:42;;;;;;;20.53;13.80;;;-1.70;99.90;;;;;;5069788;28;20642;-75
2021/12/27 07:53:08;;;;;;;24.03;12.90;;;-1.80;99.90;;;;;;5051397;28;20222;-75
2021/12/27 07:55:34;;;;;;;21.73;12.93;;;-1.80;99.90;;;;;;5046244;28;20199;-78
2021/12/27 07:58:00;;;;;;;19.30;13.83;;;-1.70;99.90;;;;;;5064036;28;20641;-75
2021/12/27 08:00:26;;;;;;;25.20;14.20;;;-1.70;99.90;;;;;;5050923;28;20223;-76
2021/12/27 08:02:52;;;;;;;24.43;14.20;;;-1.70;99.90;;;;;;5069718;28;20199;-75
2021/12/27 08:05:18;;;;;;;22.10;13.30;;;-1.70;99.90;;;;;;5055826;28;20710;-76
2021/12/27 08:07:44;;;;;;;25.60;14.40;;;-1.70;99.90;;;;;;5069434;28;21203;-75
2021/12/27 08:10:12;;;;;;;22.80;13.20;;;-1.70;99.90;;;;;;5069063;28;20696;-75
2021/12/27 08:12:38;;;;;;;23.50;13.90;;;-1.70;99.90;;;;;;5052496;28;21006;-77
2021/12/27 08:15:06;;;;;;;27.13;14.77;;;-1.70;99.90;;;;;;5067059;28;20671;-76
2021/12/27 08:17:31;;;;;;;24.93;14.70;;;-1.70;99.90;;;;;;5053030;28;21165;-75
2021/12/27 08:19:57;;;;;;;21.87;13.37;;;-1.70;99.90;;;;;;5051449;28;20637;-76
2021/12/27 08:22:22;;;;;;;24.63;13.30;;;-1.60;99.90;;;;;;5052468;28;20692;-75
2021/12/27 08:24:51;;;;;;;22.00;13.50;;;-1.60;99.90;;;;;;5039702;28;20213;-76
2021/12/27 08:27:19;;;;;;;25.63;14.57;;;-1.60;99.90;;;;;;5061474;28;20191;-75
2021/12/27 08:29:45;;;;;;;22.13;13.50;;;-1.60;99.90;;;;;;5050947;28;20672;-75
2021/12/27 08:32:10;;;;;;;21.10;13.47;;;-1.50;99.90;;;;;;5069625;28;20649;-76
2021/12/27 08:34:36;;;;;;;22.73;14.57;;;-1.50;99.90;;;;;;5037771;28;20187;-76
2021/12/27 08:37:02;;;;;;;24.37;13.90;;;-1.50;99.90;;;;;;5051062;28;20240;-76
2021/12/27 08:39:27;;;;;;;23.90;13.80;;;-1.50;99.90;;;;;;5065040;28;20199;-76
2021/12/27 08:41:53;;;;;;;21.60;13.33;;;-1.50;99.90;;;;;;5069807;28;20733;-75
2021/12/27 08:44:19;;;;;;;27.97;15.50;;;-1.50;99.90;;;;;;5068477;28;20187;-76
2021/12/27 08:46:44;;;;;;;25.93;14.87;;;-1.50;99.90;;;;;;5051951;28;20719;-76
2021/12/27 08:49:10;;;;;;;27.10;15.23;;;-1.60;99.90;;;;;;5047959;28;20298;-76
2021/12/27 08:51:36;;;;;;;21.60;13.27;;;-1.70;99.90;;;;;;5068369;28;20215;-76
2021/12/27 08:54:03;;;;;;;26.70;15.03;;;-1.60;99.90;;;;;;5050780;28;21009;-75
2021/12/27 08:56:29;;;;;;;20.27;14.13;;;-1.50;99.90;;;;;;5070268;28;20192;-75
2021/12/27 08:58:55;;;;;;;20.50;13.93;;;-1.60;99.90;;;;;;5056080;28;20643;-76
2021/12/27 09:01:21;;;;;;;27.20;14.37;;;-1.50;99.90;;;;;;5068756;28;20669;-76
2021/12/27 09:03:46;;;;;;;27.23;14.53;;;-1.50;99.90;;;;;;5048255;28;20195;-78
2021/12/27 09:06:14;;;;;;;22.97;15.07;;;-1.50;99.90;;;;;;5049416;28;20633;-75
2021/12/27 09:08:40;;;;;;;21.97;15.30;;;-1.50;99.90;;;;;;5067982;28;20243;-76
2021/12/27 09:11:05;;;;;;;23.80;15.70;;;-1.40;99.90;;;;;;5049391;28;20711;-76
2021/12/27 09:13:32;;;;;;;25.87;15.07;;;-1.40;99.90;;;;;;5066056;28;20656;-75
2021/12/27 09:16:01;;;;;;;23.13;14.00;;;-1.40;99.90;;;;;;5051675;28;20191;-76
2021/12/27 09:18:28;;;;;;;26.80;15.90;;;-1.30;99.90;;;;;;5051421;28;20683;-76
2021/12/27 09:20:54;;;;;;;25.33;15.40;;;-1.20;99.90;;;;;;5055517;28;20622;-75
2021/12/27 09:23:20;;;;;;;26.10;16.30;;;-1.20;99.90;;;;;;5071778;28;20618;-76
2021/12/27 09:25:47;;;;;;;23.90;14.77;;;-1.20;99.90;;;;;;5071555;28;20610;-76
2021/12/27 09:28:14;;;;;;;28.50;15.40;;;-1.10;99.90;;;;;;5073085;28;20629;-75
2021/12/27 09:30:40;;;;;;;26.83;15.87;;;-1.10;99.90;;;;;;5048067;28;20772;-76
2021/12/27 09:33:06;;;;;;;23.97;14.47;;;-1.10;99.90;;;;;;5055460;28;20728;-76
2021/12/27 09:35:32;;;;;;;25.23;14.50;;;-1.00;99.90;;;;;;5072145;28;20721;-75
2021/12/27 09:37:58;;;;;;;29.03;16.77;;;-1.00;99.90;;;;;;5051421;28;20199;-75
2021/12/27 09:40:24;;;;;;;26.20;14.67;;;-1.00;99.90;;;;;;5060343;28;21003;-77
2021/12/27 09:42:52;;;;;;;25.40;15.13;;;-1.00;99.90;;;;;;5068285;28;20602;-76
2021/12/27 09:45:18;;;;;;;28.03;15.57;;;-0.90;99.90;;;;;;5069009;28;20179;-76
2021/12/27 09:47:47;;;;;;;22.60;15.40;;;-0.90;99.90;;;;;;5069160;28;20727;-76
2021/12/27 09:50:17;;;;;;;24.73;16.43;;;-0.90;99.90;;;;;;5056177;28;21220;-76
2021/12/27 09:52:43;;;;;;;27.00;15.03;;;-0.90;99.90;;;;;;5068262;28;21207;-76
2021/12/27 09:55:10;;;;;;;25.47;16.37;;;-0.90;99.90;;;;;;5067591;28;20613;-78
2021/12/27 09:57:36;;;;;;;26.37;15.83;;;-0.80;99.90;;;;;;5036449;28;20656;-76
2021/12/27 10:00:04;;;;;;;27.73;15.80;;;-0.80;99.90;;;;;;5068970;28;20630;-76
2021/12/27 10:02:33;;;;;;;27.97;16.60;;;-0.80;99.90;;;;;;5070308;28;20250;-75
2021/12/27 10:04:58;;;;;;;27.63;17.30;;;-0.80;99.90;;;;;;5047292;28;20612;-75
2021/12/27 10:07:24;;;;;;;30.70;17.07;;;-0.80;99.90;;;;;;5069141;28;20984;-76
2021/12/27 10:10:00;;;;;;;31.83;16.97;;;-0.80;99.90;;;;;;5066527;28;20216;-75
2021/12/27 10:12:27;;;;;;;31.10;16.90;;;-0.80;99.90;;;;;;5064086;28;20199;-76
2021/12/27 10:15:03;;;;;;;26.67;16.33;;;-0.70;99.90;;;;;;5068659;28;20631;-75
2021/12/27 10:17:30;;;;;;;28.27;17.10;;;-0.90;99.90;;;;;;5060778;28;20620;-75
2021/12/27 10:20:07;;;;;;;32.17;17.43;;;-0.90;99.90;;;;;;5051004;28;20614;-75
2021/12/27 10:22:40;;;;;;;28.07;16.40;;;-0.80;99.90;;;;;;5057578;28;20605;-76
2021/12/27 10:25:14;;;;;;;27.57;15.73;;;-1.00;99.90;;;;;;5071890;28;20630;-75
2021/12/27 10:27:39;;;;;;;28.87;16.57;;;-0.90;99.90;;;;;;5072061;28;20726;-75
2021/12/27 10:30:12;;;;;;;29.90;16.53;;;-0.80;99.90;;;;;;5058769;28;20720;-76
2021/12/27 10:32:38;;;;;;;33.40;18.00;;;-0.80;99.90;;;;;;5072142;28;20211;-77
2021/12/27 10:35:09;;;;;;;31.97;17.43;;;-0.70;99.90;;;;;;5071891;28;21233;-75
2021/12/27 10:37:36;;;;;;;26.60;16.40;;;-0.70;99.90;;;;;;5053657;28;20236;-77
2021/12/27 10:40:06;;;;;;;30.47;16.87;;;-0.80;99.90;;;;;;5058592;28;20795;-75
2021/12/27 10:42:42;;;;;;;26.27;16.63;;;-0.80;99.90;;;;;;5054120;28;20590;-77
2021/12/27 10:45:11;;;;;;;26.03;17.40;;;-0.80;99.90;;;;;;5053440;28;20613;-75
2021/12/27 10:47:54;;;;;;;30.90;18.40;;;-0.70;99.90;;;;;;5042244;28;20955;-78
2021/12/27 10:50:25;;;;;;;32.43;17.50;;;-0.70;99.90;;;;;;5045609;28;20991;-76
2021/12/27 10:52:58;;;;;;;29.97;17.80;;;-0.80;99.90;;;;;;5052918;28;21299;-77
2021/12/27 10:55:37;;;;;;;25.87;17.30;;;-0.70;99.90;;;;;;5036797;28;20609;-77
2021/12/27 10:58:27;;;;;;;30.90;18.60;;;-0.60;99.90;;;;;;5046660;28;20668;-75
2021/12/27 11:00:56;;;;;;;31.43;18.00;;;-0.70;99.90;;;;;;5053163;28;20645;-75
2021/12/27 11:03:35;;;;;;;26.30;18.77;;;-0.70;99.90;;;;;;5050303;28;20645;-75
2021/12/27 11:06:04;;;;;;;30.23;18.17;;;-0.60;99.90;;;;;;5071824;28;21657;-76
2021/12/27 11:08:31;;;;;;;30.43;18.00;;;-0.50;99.90;;;;;;5046261;28;20799;-76
2021/12/27 11:10:58;;;;;;;31.00;18.53;;;-0.50;99.90;;;;;;5053476;28;20700;-75
2021/12/27 11:13:25;;;;;;;31.10;19.10;;;-0.50;99.90;;;;;;5051097;28;20661;-76
2021/12/27 11:15:51;;;;;;;33.70;18.00;;;-0.40;99.90;;;;;;5071234;28;20609;-75
2021/12/27 11:18:16;;;;;;;29.63;18.40;;;-0.40;99.90;;;;;;5053248;28;21306;-75
2021/12/27 11:20:45;;;;;;;28.13;19.10;;;-0.50;99.90;;;;;;5070405;28;20254;-75
2021/12/27 11:23:11;;;;;;;30.53;19.07;;;-0.40;99.90;;;;;;5040376;28;20191;-75
2021/12/27 11:25:40;;;;;;;31.67;18.80;;;-0.50;99.90;;;;;;5071525;28;20639;-77
2021/12/27 11:28:25;;;;;;;31.03;18.97;;;-0.40;99.90;;;;;;5070937;28;20680;-77
2021/12/27 11:30:51;;;;;;;28.20;18.13;;;-0.40;99.90;;;;;;5065055;28;20606;-79
2021/12/27 11:33:20;;;;;;;34.17;19.27;;;-0.30;99.90;;;;;;5066708;28;20647;-75
2021/12/27 11:35:52;;;;;;;30.30;17.87;;;-0.30;99.90;;;;;;5069256;28;20617;-77
2021/12/27 11:38:41;;;;;;;36.50;19.40;;;-0.30;99.90;;;;;;5070686;28;21193;-76
2021/12/27 11:41:25;;;;;;;33.97;20.10;;;-0.20;99.90;;;;;;5035619;28;20629;-75
2021/12/27 11:44:09;;;;;;;31.97;18.10;;;-0.20;99.90;;;;;;5044880;28;20686;-75
2021/12/27 11:46:46;;;;;;;29.93;20.23;;;-0.40;99.90;;;;;;5070924;28;21217;-79
2021/12/27 11:49:13;;;;;;;30.33;19.43;;;-0.50;99.90;;;;;;5048042;28;21305;-76
2021/12/27 11:51:40;;;;;;;30.07;18.60;;;-0.30;99.90;;;;;;5051847;28;20686;-76
2021/12/27 11:54:26;;;;;;;35.77;20.13;;;-0.30;99.90;;;;;;5052027;28;20646;-76
2021/12/27 11:56:52;;;;;;;34.97;20.67;;;-0.40;99.90;;;;;;5059732;28;20655;-76
2021/12/27 11:59:36;;;;;;;34.60;19.43;;;-0.40;99.90;;;;;;5071014;28;20669;-77
2021/12/27 12:02:14;;;;;;;31.43;19.37;;;-0.40;99.90;;;;;;5064631;28;20622;-75
2021/12/27 12:04:45;;;;;;;34.60;21.17;;;-0.30;99.90;;;;;;5052345;28;21188;-76
2021/12/27 12:07:34;;;;;;;31.27;19.60;;;-0.30;99.90;;;;;;5052049;28;20960;-76
2021/12/27 12:10:13;;;;;;;32.50;19.53;;;-0.20;99.90;;;;;;5068804;28;21212;-76
2021/12/27 12:12:43;;;;;;;29.50;19.77;;;-0.30;99.90;;;;;;5052856;28;20732;-76
2021/12/27 12:15:09;;;;;;;26.17;18.53;;;-0.40;99.90;;;;;;5051424;28;20625;-76
2021/12/27 12:17:39;;;;;;;31.43;20.23;;;-0.30;99.90;;;;;;5070960;28;20628;-77
2021/12/27 12:20:24;;;;;;;37.57;21.13;;;-0.20;99.90;;;;;;5059394;28;20614;-76
2021/12/27 12:22:59;;;;;;;31.27;20.93;;;-0.20;99.90;;;;;;5068663;28;20625;-76
2021/12/27 12:25:25;;;;;;;31.50;20.73;;;-0.20;99.90;;;;;;5070425;28;20589;-77
2021/12/27 12:27:53;;;;;;;34.90;21.20;;;-0.20;99.90;;;;;;5052716;28;20640;-79
2021/12/27 12:30:20;;;;;;;35.90;19.53;;;-0.10;99.90;;;;;;5060409;28;21213;-77
2021/12/27 12:33:04;;;;;;;31.20;19.83;;;-0.10;99.90;;;;;;5070511;28;20734;-76
2021/12/27 12:35:37;;;;;;;34.37;20.40;;;0.00;99.90;;;;;;5070406;28;20621;-76
2021/12/27 12:38:33;;;;;;;32.43;19.30;;;-0.10;99.90;;;;;;5060237;28;20642;-78
2021/12/27 12:41:15;;;;;;;34.53;19.67;;;-0.10;99.90;;;;;;5053311;28;20629;-76